Time;durP1;ratioP1;P1;durP2;ratioP2;P2;SDS_P1;SDS_P2;PMS_P1;PMS_P2;Temp;Humidity;BMP_temperature;BMP_pressure;BME280_temperature;BME280_humidity;BME280_pressure;Samples;Min_cycle;Max_cycle;Signal;HPM_P1;HPM_P2
2022/04/13 00:01:52;;;;;;;4.53;3.00;;;12.10;99.90;;;;;;5053324;28;20029;-70
2022/04/13 00:04:18;;;;;;;4.95;2.72;;;12.00;99.90;;;;;;5054814;28;20025;-70
2022/04/13 00:06:44;;;;;;;3.08;2.47;;;12.00;99.90;;;;;;5054568;28;20386;-71
2022/04/13 00:09:10;;;;;;;4.50;2.72;;;11.90;99.90;;;;;;5053730;28;20021;-70
2022/04/13 00:11:36;;;;;;;4.35;2.30;;;11.90;99.90;;;;;;5054128;28;20490;-72
2022/04/13 00:14:02;;;;;;;6.07;3.15;;;11.90;99.90;;;;;;5053818;28;20066;-70
2022/04/13 00:16:29;;;;;;;4.43;2.67;;;11.90;99.90;;;;;;5054233;28;20039;-71
2022/04/13 00:18:55;;;;;;;4.00;2.58;;;11.90;99.90;;;;;;5053602;28;20102;-70
2022/04/13 00:21:21;;;;;;;4.13;2.80;;;11.80;99.90;;;;;;5054619;28;20037;-70
2022/04/13 00:23:46;;;;;;;3.95;2.53;;;11.80;99.90;;;;;;5053871;28;20036;-70
2022/04/13 00:26:12;;;;;;;3.42;2.28;;;11.80;99.90;;;;;;5053726;28;20423;-71
2022/04/13 00:28:38;;;;;;;3.80;2.53;;;11.80;99.90;;;;;;5054637;28;20050;-72
2022/04/13 00:31:04;;;;;;;4.85;2.30;;;11.80;99.90;;;;;;5052829;28;20029;-70
2022/04/13 00:33:29;;;;;;;5.68;2.95;;;11.80;99.90;;;;;;5050808;28;20474;-70
2022/04/13 00:35:56;;;;;;;4.97;2.65;;;11.80;99.90;;;;;;5053340;28;20151;-70
2022/04/13 00:38:22;;;;;;;4.97;2.25;;;11.80;99.90;;;;;;5035370;28;20495;-71
2022/04/13 00:40:49;;;;;;;3.90;2.78;;;11.80;99.90;;;;;;5049232;28;20477;-71
2022/04/13 00:43:15;;;;;;;4.70;2.50;;;11.80;99.90;;;;;;5053316;28;20040;-70
2022/04/13 00:45:47;;;;;;;4.47;2.42;;;11.80;99.90;;;;;;5053448;28;20463;-71
2022/04/13 00:48:31;;;;;;;3.90;2.20;;;11.70;99.90;;;;;;5051045;28;20037;-70
2022/04/13 00:50:57;;;;;;;2.70;2.10;;;11.70;99.90;;;;;;5038225;28;20057;-70
2022/04/13 00:53:26;;;;;;;3.55;2.20;;;11.60;99.90;;;;;;5034045;28;20222;-70
2022/04/13 00:55:56;;;;;;;5.13;2.33;;;11.60;99.90;;;;;;5032778;28;20033;-71
2022/04/13 00:58:31;;;;;;;3.95;2.58;;;11.50;99.90;;;;;;5051430;28;20482;-71
2022/04/13 01:01:00;;;;;;;3.42;2.13;;;11.50;99.90;;;;;;5053742;28;20033;-71
2022/04/13 01:03:27;;;;;;;2.50;2.20;;;11.50;99.90;;;;;;5034340;28;20038;-71
2022/04/13 01:05:53;;;;;;;4.20;2.72;;;11.40;99.90;;;;;;5032697;28;20087;-70
2022/04/13 01:08:20;;;;;;;2.58;2.17;;;11.30;99.90;;;;;;5051714;28;20554;-71
2022/04/13 01:10:48;;;;;;;1.77;1.67;;;11.20;99.90;;;;;;5053438;28;20163;-70
2022/04/13 01:13:16;;;;;;;2.38;2.13;;;11.20;99.90;;;;;;5052634;28;20068;-70
2022/04/13 01:15:42;;;;;;;2.58;1.98;;;11.10;99.90;;;;;;5051118;28;20067;-70
2022/04/13 01:18:08;;;;;;;4.90;3.00;;;11.10;99.90;;;;;;5032748;28;20063;-69
2022/04/13 01:20:35;;;;;;;3.08;2.63;;;11.00;99.90;;;;;;5033438;28;20064;-70
2022/04/13 01:23:01;;;;;;;3.80;2.75;;;11.00;99.90;;;;;;5031158;28;20387;-69
2022/04/13 01:25:28;;;;;;;4.50;2.63;;;10.90;99.90;;;;;;5033960;28;20030;-71
2022/04/13 01:27:54;;;;;;;5.57;2.88;;;10.90;99.90;;;;;;5032583;28;20021;-70
2022/04/13 01:30:23;;;;;;;3.60;2.75;;;10.90;99.90;;;;;;5033248;28;20033;-70
2022/04/13 01:32:50;;;;;;;5.30;2.65;;;10.90;99.90;;;;;;5033187;28;20116;-70
2022/04/13 01:35:16;;;;;;;3.70;2.55;;;10.90;99.90;;;;;;5042835;28;20044;-71
2022/04/13 01:37:41;;;;;;;7.15;2.85;;;10.90;99.90;;;;;;5032864;28;20030;-71
2022/04/13 01:40:07;;;;;;;4.13;2.28;;;10.80;99.90;;;;;;5032059;28;20403;-71
2022/04/13 01:42:33;;;;;;;4.03;2.63;;;10.80;99.90;;;;;;5032070;28;20038;-71
2022/04/13 01:44:59;;;;;;;3.20;2.50;;;10.80;99.90;;;;;;5032139;28;20037;-71
2022/04/13 01:47:25;;;;;;;6.68;3.05;;;10.70;99.90;;;;;;5051063;28;20047;-71
2022/04/13 01:49:50;;;;;;;4.85;2.50;;;10.70;99.90;;;;;;5052487;28;20031;-71
2022/04/13 01:52:16;;;;;;;3.58;2.63;;;10.70;99.90;;;;;;5041727;28;20057;-71
2022/04/13 01:54:41;;;;;;;5.05;3.00;;;10.60;99.90;;;;;;5032239;28;20052;-71
2022/04/13 01:57:07;;;;;;;4.63;3.00;;;10.60;99.90;;;;;;5044463;28;20036;-71
2022/04/13 01:59:33;;;;;;;4.95;2.58;;;10.60;99.90;;;;;;5051350;28;20086;-72
2022/04/13 02:01:58;;;;;;;3.22;2.47;;;10.60;99.90;;;;;;5043912;28;20061;-71
2022/04/13 02:04:25;;;;;;;5.55;2.63;;;10.50;99.90;;;;;;5032424;28;20112;-71
2022/04/13 02:06:53;;;;;;;3.53;2.67;;;10.50;99.90;;;;;;5045258;28;20119;-71
2022/04/13 02:09:19;;;;;;;3.15;2.58;;;10.40;99.90;;;;;;5052552;28;20421;-71
2022/04/13 02:11:46;;;;;;;4.30;2.63;;;10.40;99.90;;;;;;5051772;28;20043;-71
2022/04/13 02:14:12;;;;;;;4.80;2.95;;;10.40;99.90;;;;;;5051700;28;20032;-71
2022/04/13 02:16:38;;;;;;;6.88;2.95;;;10.40;99.90;;;;;;5040835;28;20112;-71
2022/04/13 02:19:06;;;;;;;7.82;3.25;;;10.40;99.90;;;;;;5031638;28;20033;-71
2022/04/13 02:21:31;;;;;;;6.85;2.92;;;10.40;99.90;;;;;;5032467;28;20073;-71
2022/04/13 02:23:57;;;;;;;5.43;2.95;;;10.40;99.90;;;;;;5031400;28;20060;-70
2022/04/13 02:26:24;;;;;;;5.22;3.10;;;10.40;99.90;;;;;;5047593;28;20061;-71
2022/04/13 02:28:50;;;;;;;4.60;3.05;;;10.40;99.90;;;;;;5045454;28;20029;-71
2022/04/13 02:31:16;;;;;;;4.60;2.45;;;10.30;99.90;;;;;;5051462;28;20048;-71
2022/04/13 02:33:42;;;;;;;3.22;2.35;;;10.20;99.90;;;;;;5051949;28;20036;-71
2022/04/13 02:36:08;;;;;;;6.30;3.05;;;10.20;99.90;;;;;;5051235;28;20025;-71
2022/04/13 02:38:34;;;;;;;3.30;2.47;;;10.10;99.90;;;;;;5052084;28;20055;-71
2022/04/13 02:40:59;;;;;;;3.70;2.33;;;10.10;99.90;;;;;;5050794;28;20033;-71
2022/04/13 02:43:27;;;;;;;8.65;3.03;;;10.00;99.90;;;;;;5051879;28;20035;-72
2022/04/13 02:45:54;;;;;;;4.82;2.78;;;9.90;99.90;;;;;;5051071;28;20473;-70
2022/04/13 02:48:20;;;;;;;5.05;2.80;;;9.90;99.90;;;;;;5051706;28;20021;-71
2022/04/13 02:50:46;;;;;;;5.93;2.92;;;9.90;99.90;;;;;;5037452;28;20096;-71
2022/04/13 02:53:11;;;;;;;4.55;2.80;;;9.80;99.90;;;;;;5049679;28;20068;-71
2022/04/13 02:55:37;;;;;;;4.80;3.03;;;9.80;99.90;;;;;;5045901;28;20029;-71
2022/04/13 02:58:03;;;;;;;5.38;2.95;;;9.80;99.90;;;;;;5033261;28;20026;-71
2022/04/13 03:00:29;;;;;;;4.45;2.80;;;9.70;99.90;;;;;;5051900;28;20033;-72
2022/04/13 03:02:55;;;;;;;6.25;2.88;;;9.70;99.90;;;;;;5048311;28;20032;-70
2022/04/13 03:05:21;;;;;;;5.38;3.22;;;9.70;99.90;;;;;;5037463;28;20032;-72
2022/04/13 03:07:46;;;;;;;4.60;3.10;;;9.70;99.90;;;;;;5052643;28;20024;-70
2022/04/13 03:10:12;;;;;;;7.78;3.28;;;9.70;99.90;;;;;;5055060;28;20577;-71
2022/04/13 03:12:38;;;;;;;6.40;2.80;;;9.70;99.90;;;;;;5055492;28;20429;-71
2022/04/13 03:15:07;;;;;;;5.00;2.97;;;9.70;99.90;;;;;;5040637;28;20032;-71
2022/04/13 03:17:33;;;;;;;5.45;3.03;;;9.70;99.90;;;;;;5055604;28;20032;-70
2022/04/13 03:19:59;;;;;;;6.93;3.65;;;9.70;99.90;;;;;;5054791;28;20033;-70
2022/04/13 03:22:25;;;;;;;4.72;2.78;;;9.70;99.90;;;;;;5054278;28;20386;-71
2022/04/13 03:24:52;;;;;;;4.22;2.65;;;9.60;99.90;;;;;;5037433;28;20034;-71
2022/04/13 03:27:18;;;;;;;5.47;3.03;;;9.60;99.90;;;;;;5034912;28;20021;-71
2022/04/13 03:29:44;;;;;;;5.15;2.47;;;9.50;99.90;;;;;;5035346;28;20489;-71
2022/04/13 03:32:10;;;;;;;4.75;2.95;;;9.50;99.90;;;;;;5034401;28;20041;-70
2022/04/13 03:34:36;;;;;;;4.72;2.78;;;9.40;99.90;;;;;;5050714;28;20048;-71
2022/04/13 03:37:02;;;;;;;3.22;2.60;;;9.40;99.90;;;;;;5054331;28;20111;-70
2022/04/13 03:39:28;;;;;;;3.10;2.63;;;9.30;99.90;;;;;;5055385;28;20033;-71
2022/04/13 03:41:54;;;;;;;5.13;3.40;;;9.30;99.90;;;;;;5054692;28;20059;-71
2022/04/13 03:44:20;;;;;;;4.88;3.47;;;9.20;99.90;;;;;;5054111;28;20029;-71
2022/04/13 03:46:47;;;;;;;5.65;2.90;;;9.20;99.90;;;;;;5055144;28;20032;-71
2022/04/13 03:49:12;;;;;;;5.55;3.50;;;9.30;99.90;;;;;;5054289;28;20041;-71
2022/04/13 03:51:38;;;;;;;5.95;3.55;;;9.30;99.90;;;;;;5054626;28;20057;-72
2022/04/13 03:54:04;;;;;;;5.80;3.53;;;9.20;99.90;;;;;;5053925;28;20029;-71
2022/04/13 03:56:30;;;;;;;4.50;3.05;;;9.20;99.90;;;;;;5054693;28;20104;-71
2022/04/13 03:58:59;;;;;;;7.22;3.28;;;9.20;99.90;;;;;;5054429;28;20435;-71
2022/04/13 04:01:26;;;;;;;5.63;3.30;;;9.20;99.90;;;;;;5054798;28;20032;-71
2022/04/13 04:03:53;;;;;;;3.60;2.72;;;9.20;99.90;;;;;;5054131;28;20029;-70
2022/04/13 04:06:18;;;;;;;6.97;3.38;;;9.10;99.90;;;;;;5053946;28;20029;-71
2022/04/13 04:08:44;;;;;;;5.30;3.20;;;9.10;99.90;;;;;;5054718;28;20035;-70
2022/04/13 04:11:10;;;;;;;6.30;3.38;;;9.10;99.90;;;;;;5053717;28;20356;-73
2022/04/13 04:13:36;;;;;;;4.80;3.35;;;9.10;99.90;;;;;;5054677;28;20069;-70
2022/04/13 04:16:02;;;;;;;3.63;2.75;;;9.00;99.90;;;;;;5053501;28;20098;-70
2022/04/13 04:18:28;;;;;;;5.30;3.65;;;9.00;99.90;;;;;;5054008;28;20490;-70
2022/04/13 04:20:53;;;;;;;5.40;3.08;;;9.00;99.90;;;;;;5053628;28;20037;-71
2022/04/13 04:23:19;;;;;;;5.65;3.78;;;9.00;99.90;;;;;;5053211;28;20044;-70
2022/04/13 04:25:45;;;;;;;7.03;3.22;;;9.00;99.90;;;;;;5053240;28;20035;-71
2022/04/13 04:28:11;;;;;;;4.97;3.17;;;9.00;99.90;;;;;;5053426;28;20458;-70
2022/04/13 04:30:37;;;;;;;5.70;3.70;;;9.00;99.90;;;;;;5054039;28;20025;-70
2022/04/13 04:33:05;;;;;;;4.68;3.42;;;9.00;99.90;;;;;;5052949;28;20033;-70
2022/04/13 04:35:30;;;;;;;7.47;3.15;;;9.00;99.90;;;;;;5054167;28;20037;-70
2022/04/13 04:37:56;;;;;;;7.90;3.00;;;9.00;99.90;;;;;;5055462;28;20031;-70
2022/04/13 04:40:21;;;;;;;5.55;3.80;;;8.90;99.90;;;;;;5056339;28;20436;-71
2022/04/13 04:42:48;;;;;;;5.47;3.40;;;8.90;99.90;;;;;;5053918;28;20458;-71
2022/04/13 04:45:19;;;;;;;4.45;3.33;;;9.00;99.90;;;;;;5053010;28;20056;-72
2022/04/13 04:47:46;;;;;;;8.68;3.75;;;9.00;99.90;;;;;;5053816;28;20482;-71
2022/04/13 04:50:11;;;;;;;4.60;3.40;;;9.00;99.90;;;;;;5053528;28;20138;-69
2022/04/13 04:52:41;;;;;;;9.07;4.30;;;9.00;99.90;;;;;;5053224;28;20057;-70
2022/04/13 04:55:11;;;;;;;6.15;4.35;;;9.10;99.90;;;;;;5052466;28;20108;-70
2022/04/13 04:57:37;;;;;;;;;;;9.00;99.90;;;;;;5053943;28;20390;-70
2022/04/13 05:00:11;;;;;;;6.15;3.55;;;9.00;99.90;;;;;;5052122;28;19919;-70
2022/04/13 05:02:37;;;;;;;5.25;3.70;;;9.00;99.90;;;;;;5052091;28;20044;-69
2022/04/13 05:05:04;;;;;;;4.65;3.25;;;9.00;99.90;;;;;;5052135;28;20397;-69
2022/04/13 05:07:30;;;;;;;7.00;3.83;;;9.00;99.90;;;;;;5050762;28;20471;-69
2022/04/13 05:09:56;;;;;;;7.40;4.03;;;9.10;99.90;;;;;;5052936;28;20043;-70
2022/04/13 05:12:21;;;;;;;9.43;3.38;;;9.10;99.90;;;;;;5053588;28;20033;-70
2022/04/13 05:14:47;;;;;;;6.70;3.67;;;9.20;99.90;;;;;;5053113;28;20083;-70
2022/04/13 05:17:14;;;;;;;9.13;3.45;;;9.20;99.90;;;;;;5053573;28;20143;-70
2022/04/13 05:19:39;;;;;;;5.55;3.50;;;9.30;99.90;;;;;;5053315;28;20067;-70
2022/04/13 05:22:05;;;;;;;5.65;3.72;;;9.40;99.90;;;;;;5051838;28;20409;-70
2022/04/13 05:24:31;;;;;;;9.85;3.97;;;9.50;99.90;;;;;;5050659;28;20100;-75
2022/04/13 05:26:56;;;;;;;4.80;3.33;;;9.50;99.90;;;;;;5053376;28;20071;-70
2022/04/13 05:29:22;;;;;;;4.38;3.17;;;9.60;99.90;;;;;;5052541;28;20021;-70
2022/04/13 05:31:47;;;;;;;5.10;2.90;;;9.70;99.90;;;;;;5052146;28;20036;-86
2022/04/13 05:34:13;;;;;;;7.60;3.65;;;9.70;99.90;;;;;;5052880;28;20033;-81
2022/04/13 05:36:39;;;;;;;5.28;3.60;;;9.80;99.90;;;;;;5053096;28;20029;-73
2022/04/13 05:39:04;;;;;;;8.40;3.60;;;9.90;99.90;;;;;;5051191;28;20040;-70
2022/04/13 05:41:30;;;;;;;4.28;3.20;;;10.00;99.90;;;;;;5052517;28;20037;-73
2022/04/13 05:43:57;;;;;;;6.90;3.25;;;10.10;99.90;;;;;;5052890;28;20382;-69
2022/04/13 05:46:22;;;;;;;4.90;3.70;;;10.20;99.90;;;;;;5051820;28;20056;-75
2022/04/13 05:48:48;;;;;;;6.80;3.58;;;10.40;99.90;;;;;;5052589;28;20064;-71
2022/04/13 05:51:14;;;;;;;7.32;4.10;;;10.50;99.90;;;;;;5051296;28;20447;-69
2022/04/13 05:53:39;;;;;;;7.85;3.42;;;10.70;99.90;;;;;;5052533;28;20032;-72
2022/04/13 05:56:05;;;;;;;9.52;3.42;;;10.80;99.90;;;;;;5052009;28;20052;-76
2022/04/13 05:58:31;;;;;;;5.22;3.10;;;11.00;99.90;;;;;;5052476;28;20116;-75
2022/04/13 06:00:57;;;;;;;7.03;4.03;;;11.10;99.90;;;;;;5052592;28;20036;-75
2022/04/13 06:03:23;;;;;;;9.15;4.30;;;11.20;99.90;;;;;;5052597;28;20098;-77
2022/04/13 06:05:50;;;;;;;6.72;3.72;;;11.30;99.90;;;;;;5055051;28;20028;-75
2022/04/13 06:08:16;;;;;;;7.25;4.05;;;11.40;99.90;;;;;;5051281;28;20065;-72
2022/04/13 06:10:42;;;;;;;5.30;3.97;;;11.60;99.90;;;;;;5052475;28;20517;-76
2022/04/13 06:13:08;;;;;;;7.10;3.75;;;11.60;99.90;;;;;;5058003;28;20033;-81
2022/04/13 06:15:34;;;;;;;6.15;3.85;;;11.80;99.90;;;;;;5061186;28;20025;-81
2022/04/13 06:17:59;;;;;;;9.77;4.18;;;11.80;99.90;;;;;;5051345;28;20025;-72
2022/04/13 06:20:25;;;;;;;9.23;3.95;;;11.90;99.90;;;;;;5051580;28;20105;-72
2022/04/13 06:22:52;;;;;;;7.43;3.80;;;12.10;99.90;;;;;;5051565;28;20115;-72
2022/04/13 06:25:18;;;;;;;10.98;5.05;;;12.20;99.90;;;;;;5045451;28;20028;-72
2022/04/13 06:27:44;;;;;;;8.25;5.13;;;12.30;99.90;;;;;;5048797;28;20423;-72
2022/04/13 06:30:11;;;;;;;14.52;6.60;;;12.50;99.90;;;;;;5053417;28;20036;-72
2022/04/13 06:32:42;;;;;;;18.15;6.75;;;12.70;99.90;;;;;;5051761;28;20457;-72
2022/04/13 06:35:11;;;;;;;9.98;6.03;;;12.70;99.90;;;;;;5050482;28;20036;-71
2022/04/13 06:37:38;;;;;;;8.80;5.20;;;12.80;99.90;;;;;;5051164;28;20032;-72
2022/04/13 06:40:05;;;;;;;11.15;6.57;;;12.80;99.90;;;;;;5050399;28;20478;-71
2022/04/13 06:42:38;;;;;;;9.98;6.03;;;12.90;99.90;;;;;;5051243;28;20114;-71
2022/04/13 06:45:10;;;;;;;11.80;5.88;;;13.00;99.90;;;;;;5050506;28;20021;-71
2022/04/13 06:47:37;;;;;;;13.02;6.60;;;13.10;99.90;;;;;;5050547;28;20021;-72
2022/04/13 06:50:02;;;;;;;12.75;5.90;;;13.20;99.90;;;;;;5049655;28;20029;-72
2022/04/13 06:52:36;;;;;;;13.65;6.65;;;13.30;99.90;;;;;;5051096;28;20521;-73
2022/04/13 06:55:04;;;;;;;10.18;5.70;;;13.40;99.90;;;;;;5049363;28;20103;-72
2022/04/13 06:57:33;;;;;;;9.77;5.45;;;13.50;99.90;;;;;;5051066;28;20392;-72
2022/04/13 06:59:59;;;;;;;10.88;6.65;;;13.60;99.90;;;;;;5050997;28;20094;-73
2022/04/13 07:02:26;;;;;;;9.25;5.90;;;13.70;99.90;;;;;;5049849;28;20116;-73
2022/04/13 07:04:53;;;;;;;13.30;6.10;;;13.90;99.90;;;;;;5050930;28;20029;-73
2022/04/13 07:07:19;;;;;;;8.55;5.60;;;14.00;99.90;;;;;;5050950;28;20083;-73
2022/04/13 07:09:45;;;;;;;9.80;6.15;;;14.20;99.90;;;;;;5050454;28;20032;-73
2022/04/13 07:12:10;;;;;;;7.57;5.32;;;14.30;99.90;;;;;;5050473;28;20394;-73
2022/04/13 07:14:36;;;;;;;9.93;5.72;;;14.40;99.90;;;;;;5051828;28;20032;-73
2022/04/13 07:17:02;;;;;;;9.82;5.43;;;14.50;99.90;;;;;;5051013;28;20070;-72
2022/04/13 07:19:28;;;;;;;10.52;5.70;;;14.60;99.90;;;;;;5051074;28;20025;-72
2022/04/13 07:21:54;;;;;;;11.60;5.90;;;14.80;99.90;;;;;;5051257;28;20036;-73
2022/04/13 07:24:20;;;;;;;7.82;5.70;;;14.90;99.90;;;;;;5050705;28;20033;-73
2022/04/13 07:26:45;;;;;;;14.73;5.50;;;15.00;99.90;;;;;;5046788;28;20025;-73
2022/04/13 07:29:11;;;;;;;8.40;5.13;;;15.10;99.90;;;;;;5050336;28;20025;-73
2022/04/13 07:31:38;;;;;;;12.23;5.28;;;15.20;99.90;;;;;;5051013;28;20117;-73
2022/04/13 07:34:04;;;;;;;9.45;5.38;;;15.30;99.90;;;;;;5050800;28;20044;-72
2022/04/13 07:36:30;;;;;;;10.18;5.47;;;15.40;99.90;;;;;;5049661;28;20024;-73
2022/04/13 07:38:56;;;;;;;11.57;5.50;;;15.60;99.90;;;;;;5050271;28;20035;-73
2022/04/13 07:41:21;;;;;;;11.40;5.60;;;15.70;99.90;;;;;;5050229;28;20029;-74
2022/04/13 07:43:49;;;;;;;10.30;5.22;;;15.70;99.90;;;;;;5050989;28;20029;-73
2022/04/13 07:46:16;;;;;;;9.65;4.90;;;15.90;99.90;;;;;;5049986;28;20421;-73
2022/04/13 07:48:41;;;;;;;13.20;6.22;;;16.00;99.90;;;;;;5050699;28;20410;-73
2022/04/13 07:51:07;;;;;;;10.65;5.78;;;16.10;99.70;;;;;;5049723;28;20052;-72
2022/04/13 07:53:33;;;;;;;16.45;5.80;;;16.20;99.60;;;;;;5049035;28;20059;-72
2022/04/13 07:55:59;;;;;;;18.35;6.72;;;16.30;99.10;;;;;;5053785;28;20078;-73
2022/04/13 07:58:24;;;;;;;11.70;6.05;;;16.40;99.70;;;;;;5053049;28;20021;-72
2022/04/13 08:00:50;;;;;;;7.93;5.70;;;16.60;99.10;;;;;;5055058;28;20414;-73
2022/04/13 08:03:16;;;;;;;9.85;6.32;;;16.60;98.80;;;;;;5054294;28;20041;-72
2022/04/13 08:05:41;;;;;;;9.88;6.07;;;16.70;98.30;;;;;;5054196;28;20074;-72
2022/04/13 08:08:07;;;;;;;11.73;5.90;;;16.80;98.20;;;;;;5054209;28;20029;-72
2022/04/13 08:10:33;;;;;;;11.38;5.55;;;16.90;97.70;;;;;;5054007;28;20044;-72
2022/04/13 08:12:58;;;;;;;13.77;6.38;;;17.10;97.20;;;;;;5052770;28;20068;-72
2022/04/13 08:15:24;;;;;;;11.80;5.65;;;17.20;96.70;;;;;;5053612;28;20036;-71
2022/04/13 08:17:50;;;;;;;10.85;5.30;;;17.40;96.30;;;;;;5054532;28;20103;-72
2022/04/13 08:20:16;;;;;;;9.60;5.28;;;17.50;95.30;;;;;;5052905;28;20036;-71
2022/04/13 08:22:43;;;;;;;9.43;5.28;;;17.60;95.30;;;;;;5054222;28;20037;-72
2022/04/13 08:25:10;;;;;;;15.98;5.45;;;17.70;94.60;;;;;;5053081;28;20115;-72
2022/04/13 08:27:35;;;;;;;10.60;5.43;;;17.80;93.50;;;;;;5054593;28;20041;-72
2022/04/13 08:30:01;;;;;;;15.65;5.20;;;18.00;92.40;;;;;;5052643;28;20074;-72
2022/04/13 08:32:27;;;;;;;11.00;5.53;;;18.10;91.70;;;;;;5053014;28;20116;-72
2022/04/13 08:34:53;;;;;;;12.38;5.88;;;18.20;91.40;;;;;;5053943;28;20029;-72
2022/04/13 08:37:19;;;;;;;11.43;4.60;;;18.40;90.60;;;;;;5053099;28;20109;-72
2022/04/13 08:39:45;;;;;;;13.93;5.65;;;18.60;90.00;;;;;;5054276;28;20036;-72
2022/04/13 08:42:13;;;;;;;12.32;4.97;;;18.60;87.20;;;;;;5053065;28;20138;-71
2022/04/13 08:44:49;;;;;;;9.48;4.50;;;18.60;86.30;;;;;;5054050;28;20040;-72
2022/04/13 08:47:20;;;;;;;10.32;5.05;;;18.60;85.80;;;;;;5052436;28;20028;-72
2022/04/13 08:49:50;;;;;;;11.05;4.60;;;18.60;86.80;;;;;;5053670;28;20041;-72
2022/04/13 08:52:35;;;;;;;;;;;18.70;84.50;;;;;;5053356;28;20061;-72
2022/04/13 08:55:11;;;;;;;10.43;3.78;;;18.80;82.00;;;;;;5053507;28;19908;-72
2022/04/13 08:57:48;;;;;;;14.50;4.18;;;18.90;79.60;;;;;;5053447;28;20343;-72
2022/04/13 09:00:18;;;;;;;7.82;3.80;;;19.10;77.00;;;;;;5053075;28;20025;-72
2022/04/13 09:03:21;;;;;;;10.93;4.57;;;19.30;73.20;;;;;;5051775;28;20060;-72
2022/04/13 09:05:55;;;;;;;8.30;3.80;;;19.40;71.60;;;;;;5051373;28;20033;-72
2022/04/13 09:08:23;;;;;;;8.30;3.47;;;19.50;70.80;;;;;;5051555;28;20037;-72
2022/04/13 09:10:53;;;;;;;8.15;3.42;;;19.60;70.80;;;;;;5053527;28;20052;-72
2022/04/13 09:13:24;;;;;;;14.27;3.60;;;19.70;69.40;;;;;;5051557;28;20040;-72
2022/04/13 09:15:50;;;;;;;5.20;3.30;;;19.80;68.40;;;;;;5052056;28;20035;-72
2022/04/13 09:18:16;;;;;;;9.30;3.33;;;19.90;66.80;;;;;;5050774;28;20135;-72
2022/04/13 09:20:42;;;;;;;7.22;3.63;;;20.10;65.80;;;;;;5052581;28;20534;-72
2022/04/13 09:23:08;;;;;;;8.32;3.28;;;20.20;66.00;;;;;;5052431;28;20033;-71
2022/04/13 09:25:36;;;;;;;9.77;3.60;;;20.30;64.50;;;;;;5053230;28;20425;-72
2022/04/13 09:28:02;;;;;;;8.25;2.97;;;20.40;64.20;;;;;;5051952;28;20021;-72
2022/04/13 09:30:32;;;;;;;9.73;2.75;;;20.60;61.50;;;;;;5051724;28;20021;-71
2022/04/13 09:32:58;;;;;;;15.73;3.33;;;20.70;60.60;;;;;;5052840;28;20048;-72
2022/04/13 09:35:24;;;;;;;6.78;2.28;;;20.70;60.50;;;;;;5051755;28;20024;-72
2022/04/13 09:37:49;;;;;;;8.38;2.78;;;20.80;58.10;;;;;;5052306;28;20033;-72
2022/04/13 09:40:37;;;;;;;11.05;3.40;;;20.90;59.60;;;;;;5051619;28;20497;-72
2022/04/13 09:43:05;;;;;;;9.30;2.47;;;21.00;59.50;;;;;;5052636;28;20065;-72
2022/04/13 09:45:35;;;;;;;7.03;2.47;;;21.10;56.80;;;;;;5051652;28;20049;-72
2022/04/13 09:48:04;;;;;;;6.28;2.40;;;21.30;56.70;;;;;;5052380;28;20053;-72
2022/04/13 09:50:30;;;;;;;10.55;2.47;;;21.30;55.20;;;;;;5051320;28;20370;-71
2022/04/13 09:52:57;;;;;;;7.30;2.70;;;21.30;56.40;;;;;;5051825;28;20037;-72
2022/04/13 09:55:24;;;;;;;4.63;2.30;;;21.30;55.80;;;;;;5051189;28;20041;-72
2022/04/13 09:57:50;;;;;;;6.90;2.38;;;21.30;56.90;;;;;;5051137;28;20082;-72
2022/04/13 10:00:16;;;;;;;7.20;3.03;;;21.30;56.80;;;;;;5051626;28;20368;-72
2022/04/13 10:02:43;;;;;;;6.63;2.63;;;21.40;55.00;;;;;;5051536;28;20036;-72
2022/04/13 10:05:20;;;;;;;5.93;3.10;;;21.40;54.80;;;;;;5052036;28;20091;-72
2022/04/13 10:08:10;;;;;;;8.20;2.70;;;21.40;52.90;;;;;;5052021;28;20059;-72
2022/04/13 10:10:40;;;;;;;4.63;2.60;;;21.60;53.80;;;;;;5051960;28;20347;-72
2022/04/13 10:13:06;;;;;;;4.57;2.58;;;21.70;53.90;;;;;;5051877;28;20051;-71
2022/04/13 10:15:31;;;;;;;6.78;2.28;;;21.80;54.80;;;;;;5051313;28;20390;-72
2022/04/13 10:17:59;;;;;;;7.63;2.03;;;21.80;51.60;;;;;;5050910;28;20041;-72
2022/04/13 10:20:40;;;;;;;3.33;1.85;;;21.80;51.90;;;;;;5051389;28;20047;-72
2022/04/13 10:23:05;;;;;;;6.85;2.35;;;21.90;52.80;;;;;;5051796;28;20091;-72
2022/04/13 10:25:31;;;;;;;8.50;2.40;;;22.00;52.90;;;;;;5051099;28;20036;-73
2022/04/13 10:27:59;;;;;;;6.82;2.85;;;22.00;53.70;;;;;;5051679;28;20032;-72
2022/04/13 10:30:36;;;;;;;8.65;2.70;;;22.00;53.90;;;;;;5051577;28;20051;-72
2022/04/13 10:33:12;;;;;;;7.85;3.05;;;22.10;53.70;;;;;;5051899;28;20466;-72
2022/04/13 10:35:40;;;;;;;5.93;2.90;;;22.20;54.60;;;;;;5051339;28;20025;-73
2022/04/13 10:38:07;;;;;;;4.40;2.63;;;22.30;54.50;;;;;;5051610;28;20029;-73
2022/04/13 10:40:35;;;;;;;10.57;3.38;;;22.30;55.90;;;;;;5050851;28;20028;-72
2022/04/13 10:43:03;;;;;;;10.18;2.88;;;22.40;56.60;;;;;;5051410;28;20644;-71
2022/04/13 10:45:30;;;;;;;8.38;2.85;;;22.50;56.50;;;;;;5050136;28;20051;-72
2022/04/13 10:48:10;;;;;;;5.00;3.10;;;22.70;54.80;;;;;;5051509;28;20454;-73
2022/04/13 10:50:50;;;;;;;7.70;3.33;;;22.90;55.90;;;;;;5049795;28;20071;-72
2022/04/13 10:53:29;;;;;;;6.80;3.25;;;23.10;55.90;;;;;;5047181;28;20078;-72
2022/04/13 10:55:59;;;;;;;10.48;3.22;;;23.10;56.40;;;;;;5050970;28;20032;-73
2022/04/13 10:58:44;;;;;;;10.52;3.33;;;23.30;56.90;;;;;;5051628;28;20430;-72
2022/04/13 11:01:13;;;;;;;7.85;3.08;;;23.50;55.70;;;;;;5051134;28;20029;-72
2022/04/13 11:03:39;;;;;;;11.07;3.50;;;23.70;55.50;;;;;;5050877;28;20160;-72
2022/04/13 11:06:07;;;;;;;8.88;3.30;;;23.70;54.50;;;;;;5050881;28;20080;-72
2022/04/13 11:08:41;;;;;;;13.00;3.78;;;24.00;55.40;;;;;;5050236;28;20096;-72
2022/04/13 11:11:08;;;;;;;11.70;3.13;;;24.10;53.40;;;;;;5051502;28;20183;-71
2022/04/13 11:13:33;;;;;;;6.38;2.70;;;24.10;54.40;;;;;;5050456;28;20029;-71
2022/04/13 11:16:15;;;;;;;8.32;3.33;;;24.00;54.40;;;;;;5050216;28;20512;-72
2022/04/13 11:18:41;;;;;;;6.20;2.63;;;24.20;54.40;;;;;;5050842;28;20039;-72
2022/04/13 11:21:08;;;;;;;12.18;2.78;;;24.20;51.70;;;;;;5051218;28;20055;-72
2022/04/13 11:23:43;;;;;;;10.43;2.85;;;24.20;53.00;;;;;;5050307;28;20045;-72
2022/04/13 11:26:08;;;;;;;3.88;2.05;;;24.20;51.80;;;;;;5050737;28;20036;-72
2022/04/13 11:28:35;;;;;;;7.10;2.10;;;24.20;52.70;;;;;;5050915;28;20413;-73
2022/04/13 11:31:10;;;;;;;7.95;2.38;;;24.20;52.40;;;;;;5055034;28;20047;-73
2022/04/13 11:33:55;;;;;;;5.88;2.88;;;24.40;51.80;;;;;;5052189;28;20123;-73
2022/04/13 11:36:22;;;;;;;8.85;2.15;;;;;;;;;;5054325;28;20040;-73
2022/04/13 11:38:51;;;;;;;5.80;1.90;;;;;;;;;;5054800;28;20029;-73
2022/04/13 11:41:18;;;;;;;4.20;2.03;;;;;;;;;;5054180;28;20096;-73
2022/04/13 11:43:45;;;;;;;4.72;2.38;;;25.00;47.70;;;;;;5054526;28;20071;-73
2022/04/13 11:46:36;;;;;;;5.75;2.20;;;25.00;48.60;;;;;;5054699;28;20029;-73
2022/04/13 11:49:03;;;;;;;13.25;2.47;;;25.00;49.00;;;;;;5054839;28;20108;-73
2022/04/13 11:51:29;;;;;;;11.38;3.03;;;25.20;48.30;;;;;;5052950;28;20051;-72
2022/04/13 11:54:04;;;;;;;49.55;3.60;;;25.20;48.50;;;;;;5054333;28;20112;-72
2022/04/13 11:56:36;;;;;;;7.18;2.33;;;25.40;47.90;;;;;;5053745;28;20160;-72
2022/04/13 11:59:02;;;;;;;6.80;2.35;;;25.60;47.40;;;;;;5054515;28;20032;-73
2022/04/13 12:01:28;;;;;;;7.15;2.30;;;25.80;47.30;;;;;;5053583;28;20037;-72
2022/04/13 12:03:57;;;;;;;4.93;1.90;;;25.90;46.10;;;;;;5054293;28;20036;-71
2022/04/13 12:06:24;;;;;;;10.80;2.30;;;25.80;47.00;;;;;;5053198;28;20462;-72
2022/04/13 12:09:01;;;;;;;9.77;2.20;;;25.90;45.90;;;;;;5052527;28;20029;-73
2022/04/13 12:11:41;;;;;;;7.47;2.05;;;25.80;47.30;;;;;;5053186;28;20087;-72
2022/04/13 12:14:09;;;;;;;7.63;2.03;;;25.70;46.40;;;;;;5054070;28;20037;-73
2022/04/13 12:16:39;;;;;;;3.85;1.67;;;25.70;46.80;;;;;;5053340;28;20021;-73
2022/04/13 12:19:09;;;;;;;9.68;1.98;;;25.80;45.90;;;;;;5054260;28;20025;-72
2022/04/13 12:21:36;;;;;;;7.75;2.40;;;;;;;;;;5053061;28;20029;-73
2022/04/13 12:24:07;;;;;;;5.28;2.15;;;25.80;46.50;;;;;;5053149;28;20494;-73
2022/04/13 12:26:38;;;;;;;17.77;2.33;;;25.80;46.40;;;;;;5047714;28;20025;-73
2022/04/13 12:29:14;;;;;;;8.45;2.78;;;25.90;46.50;;;;;;5054339;28;20543;-73
2022/04/13 12:31:53;;;;;;;5.28;1.73;;;26.10;46.30;;;;;;5053233;28;20025;-72
2022/04/13 12:34:24;;;;;;;5.82;2.00;;;26.50;46.00;;;;;;5053379;28;20029;-72
2022/04/13 12:36:50;;;;;;;6.20;2.28;;;26.80;45.20;;;;;;5053604;28;20029;-72
2022/04/13 12:39:16;;;;;;;9.82;2.67;;;26.80;45.50;;;;;;5053314;28;20478;-72
2022/04/13 12:41:41;;;;;;;6.03;2.30;;;26.90;44.20;;;;;;5052837;28;20029;-72
2022/04/13 12:44:07;;;;;;;6.68;2.15;;;26.90;45.40;;;;;;5053820;28;20029;-72
2022/04/13 12:46:33;;;;;;;8.65;2.10;;;26.90;44.70;;;;;;5052066;28;20082;-72
2022/04/13 12:49:04;;;;;;;4.68;1.80;;;27.10;45.50;;;;;;5053873;28;20029;-73
2022/04/13 12:51:34;;;;;;;6.05;1.90;;;27.40;44.40;;;;;;5051586;28;20134;-73